Time;durP1;ratioP1;P1;durP2;ratioP2;P2;SDS_P1;SDS_P2;PMS_P1;PMS_P2;Temp;Humidity;BMP_temperature;BMP_pressure;BME280_temperature;BME280_humidity;BME280_pressure;Samples;Min_cycle;Max_cycle;Signal;HPM_P1;HPM_P2
2021/03/29 00:02:18;;;;;;;8.03;7.22;;;;;;;17.97;47.57;100523.89;1795298;79;22232;-69
2021/03/29 00:04:47;;;;;;;8.23;6.80;;;;;;;17.97;47.63;100517.69;1790544;79;21198;-69
2021/03/29 00:07:16;;;;;;;7.60;6.83;;;;;;;17.96;47.61;100525.42;1784069;79;21170;-69
2021/03/29 00:09:43;;;;;;;7.70;7.00;;;;;;;17.95;47.66;100525.94;1782376;79;21147;-70
2021/03/29 00:12:11;;;;;;;6.83;6.15;;;;;;;17.95;47.55;100525.13;1803351;78;21175;-70
2021/03/29 00:14:39;;;;;;;7.72;7.03;;;;;;;17.95;47.54;100530.50;1801632;78;21446;-72
2021/03/29 00:17:07;;;;;;;7.55;6.85;;;;;;;17.95;47.65;100526.47;1813575;78;21152;-70
2021/03/29 00:19:39;;;;;;;7.47;6.72;;;;;;;17.94;47.63;100531.52;1785266;79;21540;-70
2021/03/29 00:22:06;;;;;;;7.28;6.55;;;;;;;17.93;47.70;100532.03;1791115;78;21170;-69
2021/03/29 00:24:36;;;;;;;7.35;6.65;;;;;;;17.93;47.70;100531.21;1777881;79;21167;-69
2021/03/29 00:27:07;;;;;;;6.42;5.85;;;;;;;17.91;47.71;100531.41;1778218;78;22288;-69
2021/03/29 00:29:37;;;;;;;8.10;6.53;;;;;;;17.91;47.72;100535.95;1787981;79;21662;-70
2021/03/29 00:32:07;;;;;;;7.08;6.37;;;;;;;17.90;47.68;100530.25;1777936;79;21146;-69
2021/03/29 00:34:36;;;;;;;7.08;6.22;;;;;;;17.88;47.73;100535.30;1780789;78;21156;-68
2021/03/29 00:37:05;;;;;;;7.55;6.67;;;;;;;17.87;47.74;100536.34;1789094;79;21123;-69
2021/03/29 00:39:36;;;;;;;6.95;6.28;;;;;;;17.87;47.68;100543.05;1773668;78;21126;-68
2021/03/29 00:42:05;;;;;;;7.42;6.20;;;;;;;17.86;47.73;100544.06;1782578;80;21192;-69
2021/03/29 00:44:33;;;;;;;6.55;5.95;;;;;;;17.86;47.76;100550.78;1778494;78;21182;-70
2021/03/29 00:47:03;;;;;;;6.58;5.78;;;;;;;17.85;47.73;100539.73;1778661;79;21179;-71
2021/03/29 00:49:30;;;;;;;7.30;6.60;;;;;;;17.84;47.76;100543.44;1764182;80;21135;-63
2021/03/29 00:51:58;;;;;;;5.80;5.20;;;;;;;17.84;47.81;100543.44;1776001;80;22156;-64
2021/03/29 00:54:27;;;;;;;6.17;5.58;;;;;;;17.83;47.81;100544.97;1808742;78;21175;-65
2021/03/29 00:56:55;;;;;;;6.35;5.75;;;;;;;17.82;47.81;100543.30;1784870;79;21119;-65
2021/03/29 00:59:22;;;;;;;6.33;5.58;;;;;;;17.82;47.97;100550.83;1793575;78;21147;-65
2021/03/29 01:01:51;;;;;;;6.47;5.87;;;;;;;17.81;47.86;100550.53;1777284;79;21177;-64
2021/03/29 01:04:18;;;;;;;6.17;5.58;;;;;;;17.80;47.85;100556.92;1763029;80;21388;-65
2021/03/29 01:06:48;;;;;;;7.15;6.05;;;;;;;17.79;47.91;100557.11;1786074;78;21187;-65
2021/03/29 01:09:23;;;;;;;5.92;5.33;;;;;;;17.79;47.90;100557.96;1780736;78;21179;-64
2021/03/29 01:11:54;;;;;;;5.75;5.25;;;;;;;17.78;47.88;100556.28;1780613;80;21199;-65
2021/03/29 01:14:27;;;;;;;5.83;5.33;;;;;;;17.77;47.89;100561.85;1801249;78;21553;-67
2021/03/29 01:17:03;;;;;;;5.95;5.35;;;;;;;17.76;48.00;100563.72;1772470;79;21346;-66
2021/03/29 01:20:03;;;;;;;6.10;5.50;;;;;;;17.74;47.93;100558.23;1769541;79;21232;-67
2021/03/29 01:22:40;;;;;;;6.45;5.85;;;;;;;17.73;47.97;100560.09;1800681;78;21105;-64
2021/03/29 01:25:27;;;;;;;6.03;5.35;;;;;;;17.71;48.02;100567.48;1808541;78;21221;-65
2021/03/29 01:28:02;;;;;;;5.90;5.30;;;;;;;17.69;48.06;100569.54;1811478;78;21127;-66
2021/03/29 01:30:31;;;;;;;5.80;5.30;;;;;;;17.67;48.06;100572.45;1772040;79;22319;-66
2021/03/29 01:33:00;;;;;;;6.20;5.60;;;;;;;17.65;48.15;100572.30;1810800;78;21210;-64
2021/03/29 01:35:31;;;;;;;5.00;4.60;;;;;;;17.65;48.14;100579.02;1766729;79;21650;-65
2021/03/29 01:38:02;;;;;;;6.00;5.37;;;;;;;17.64;48.11;100574.17;1773732;80;21139;-64
2021/03/29 01:40:29;;;;;;;5.90;5.10;;;;;;;17.64;48.18;100579.55;1791911;79;21611;-65
2021/03/29 01:42:56;;;;;;;6.00;5.40;;;;;;;17.63;48.15;100577.86;1787218;79;21360;-65
2021/03/29 01:45:26;;;;;;;6.70;5.45;;;;;;;17.62;48.14;100577.56;1790487;79;21154;-64
2021/03/29 01:47:53;;;;;;;5.20;4.72;;;;;;;17.62;48.15;100580.77;1813276;78;21127;-65
2021/03/29 01:50:25;;;;;;;5.55;5.05;;;;;;;17.62;48.24;100586.14;1801109;79;21163;-64
2021/03/29 01:52:53;;;;;;;5.55;5.05;;;;;;;17.61;48.22;100587.98;1793797;78;21135;-65
2021/03/29 01:55:21;;;;;;;5.75;5.17;;;;;;;17.61;48.17;100580.44;1785068;79;21389;-65
2021/03/29 01:57:50;;;;;;;5.60;4.90;;;;;;;17.60;48.22;100585.51;1788463;80;21203;-63
2021/03/29 02:00:37;;;;;;;5.28;4.78;;;;;;;17.59;48.23;100586.52;1780600;78;21650;-64
2021/03/29 02:03:06;;;;;;;5.45;4.85;;;;;;;17.60;48.30;100589.53;1770648;80;21146;-65
2021/03/29 02:05:34;;;;;;;5.62;4.78;;;;;;;17.56;48.37;100584.20;1808203;78;21166;-65
2021/03/29 02:08:02;;;;;;;5.90;4.80;;;;;;;17.56;48.30;100586.41;1792033;79;21403;-64
2021/03/29 02:10:34;;;;;;;6.58;5.92;;;;;;;17.56;48.26;100592.27;1786290;79;21118;-65
2021/03/29 02:13:11;;;;;;;5.10;4.60;;;;;;;17.56;48.31;100590.92;1782461;78;21580;-63
2021/03/29 02:15:40;;;;;;;5.10;4.58;;;;;;;17.54;48.29;100596.52;1783833;79;21154;-64
2021/03/29 02:18:24;;;;;;;5.37;4.78;;;;;;;17.53;48.25;100594.02;1820349;78;21160;-62
2021/03/29 02:20:53;;;;;;;5.05;4.55;;;;;;;17.52;48.30;100591.84;1789163;79;21390;-65
2021/03/29 02:23:21;;;;;;;5.40;4.90;;;;;;;17.51;48.23;100589.34;1766479;78;21635;-64
2021/03/29 02:25:50;;;;;;;5.55;5.05;;;;;;;17.50;48.28;100592.55;1806221;78;21163;-63
2021/03/29 02:28:18;;;;;;;4.97;4.47;;;;;;;17.49;48.31;100594.39;1771988;80;21164;-63
2021/03/29 02:30:46;;;;;;;4.80;4.40;;;;;;;17.49;48.32;100590.88;1798930;79;21679;-65
2021/03/29 02:33:15;;;;;;;4.30;3.90;;;;;;;17.48;48.41;100595.91;1787049;78;21214;-65
2021/03/29 02:35:42;;;;;;;4.62;4.08;;;;;;;17.48;48.42;100600.80;1787211;80;21099;-64
2021/03/29 02:38:18;;;;;;;5.28;4.78;;;;;;;17.47;48.39;100605.84;1774194;80;21203;-63
2021/03/29 02:40:51;;;;;;;4.97;4.47;;;;;;;17.47;48.43;100604.49;1787962;78;21619;-64
2021/03/29 02:43:19;;;;;;;4.60;4.15;;;;;;;17.46;48.42;100600.16;1781669;80;21151;-64
2021/03/29 02:45:52;;;;;;;4.90;4.40;;;;;;;17.45;48.47;100612.44;1774252;80;21601;-63
2021/03/29 02:48:24;;;;;;;4.62;4.22;;;;;;;17.43;48.46;100611.28;1767692;80;24736;-63
2021/03/29 02:50:54;;;;;;;4.87;4.47;;;;;;;17.43;48.54;100611.28;1785404;80;21139;-63
2021/03/29 02:53:26;;;;;;;4.78;4.37;;;;;;;17.42;48.52;100612.80;1754569;80;21131;-63
2021/03/29 02:55:56;;;;;;;5.35;4.85;;;;;;;17.41;48.49;100617.35;1778647;80;21187;-63
2021/03/29 02:58:24;;;;;;;4.87;4.37;;;;;;;17.41;48.46;100618.70;1800984;78;21200;-62
2021/03/29 03:00:52;;;;;;;4.72;4.28;;;;;;;17.40;48.51;100618.39;1812433;78;21198;-64
2021/03/29 03:03:20;;;;;;;4.40;4.00;;;;;;;17.40;48.50;100618.88;1820963;78;21118;-63
2021/03/29 03:05:50;;;;;;;4.33;3.92;;;;;;;17.40;48.50;100628.28;1761296;80;21107;-64
2021/03/29 03:08:19;;;;;;;4.70;4.20;;;;;;;17.39;48.51;100632.83;1776864;79;21198;-64
2021/03/29 03:10:47;;;;;;;4.42;4.03;;;;;;;17.38;48.61;100632.50;1792676;79;21274;-63
2021/03/29 03:13:16;;;;;;;4.90;4.40;;;;;;;17.38;48.58;100632.50;1787238;79;21163;-64
2021/03/29 03:15:45;;;;;;;4.58;4.17;;;;;;;17.37;48.56;100634.88;1780730;79;21202;-64
2021/03/29 03:18:14;;;;;;;4.35;3.95;;;;;;;17.37;48.59;100644.28;1783509;79;21158;-64
2021/03/29 03:20:44;;;;;;;4.55;4.15;;;;;;;17.37;48.60;100635.39;1797312;79;21158;-64
2021/03/29 03:23:14;;;;;;;4.80;4.37;;;;;;;17.36;48.59;100645.28;1813387;78;21361;-64
2021/03/29 03:25:48;;;;;;;4.72;4.20;;;;;;;17.36;48.57;100651.17;1790041;78;21198;-64
2021/03/29 03:28:21;;;;;;;4.22;3.83;;;;;;;17.36;48.66;100648.48;1809713;78;21147;-64
2021/03/29 03:30:52;;;;;;;4.62;4.20;;;;;;;17.33;48.61;100650.23;1791323;80;21163;-65
2021/03/29 03:33:22;;;;;;;5.00;4.50;;;;;;;17.34;48.70;100649.20;1766649;79;21170;-63
2021/03/29 03:35:52;;;;;;;4.12;3.72;;;;;;;17.32;48.68;100649.38;1786479;78;21277;-63
2021/03/29 03:38:26;;;;;;;4.20;3.70;;;;;;;17.31;48.70;100655.78;1765172;80;21123;-64
2021/03/29 03:41:01;;;;;;;4.60;4.20;;;;;;;17.31;48.69;100655.78;1767033;80;21182;-63
2021/03/29 03:43:34;;;;;;;4.20;3.80;;;;;;;17.30;48.66;100661.64;1784197;79;21189;-65
2021/03/29 03:46:13;;;;;;;4.20;3.80;;;;;;;17.29;48.75;100670.73;1780495;79;21198;-63
2021/03/29 03:48:43;;;;;;;4.40;4.00;;;;;;;17.28;48.75;100665.55;1778076;79;22646;-65
2021/03/29 03:51:12;;;;;;;4.95;4.33;;;;;;;17.27;48.76;100666.59;1775124;79;21185;-62
2021/03/29 03:53:41;;;;;;;4.37;3.98;;;;;;;17.26;48.79;100667.08;1767123;79;21130;-64
2021/03/29 03:56:08;;;;;;;4.40;3.90;;;;;;;17.26;48.83;100666.25;1777259;79;21170;-63
2021/03/29 03:58:36;;;;;;;4.87;4.37;;;;;;;17.26;48.78;100670.28;1780006;79;21229;-64
2021/03/29 04:01:06;;;;;;;4.60;4.10;;;;;;;17.24;48.84;100672.33;1767775;79;21463;-64
2021/03/29 04:03:34;;;;;;;3.90;3.40;;;;;;;17.24;48.80;100680.38;1743924;79;21169;-65
2021/03/29 04:06:02;;;;;;;4.28;3.87;;;;;;;17.23;48.84;100675.53;1790629;78;21211;-64
2021/03/29 04:08:32;;;;;;;4.37;3.92;;;;;;;17.24;48.85;100684.41;1758293;80;21182;-65
2021/03/29 04:11:00;;;;;;;4.83;3.98;;;;;;;17.23;48.90;100682.24;1795924;78;21195;-64
2021/03/29 04:13:29;;;;;;;4.08;3.67;;;;;;;17.23;48.88;100680.91;1761493;80;21263;-64
2021/03/29 04:16:02;;;;;;;5.22;3.70;;;;;;;17.23;48.85;100681.39;1796423;78;21151;-65
2021/03/29 04:18:31;;;;;;;4.33;3.92;;;;;;;17.22;48.86;100677.87;1771913;80;21572;-64
2021/03/29 04:21:00;;;;;;;4.28;3.55;;;;;;;17.22;48.84;100687.28;1791828;78;21300;-64
2021/03/29 04:23:31;;;;;;;4.08;3.60;;;;;;;17.20;48.86;100689.32;1762040;80;21664;-64
2021/03/29 04:25:59;;;;;;;4.83;4.33;;;;;;;17.21;48.92;100684.77;1753799;80;21253;-67
2021/03/29 04:28:26;;;;;;;3.92;3.52;;;;;;;17.21;48.90;100684.77;1785755;78;21158;-65
2021/03/29 04:30:53;;;;;;;3.75;3.42;;;;;;;17.20;48.88;100692.52;1795067;78;21195;-65
2021/03/29 04:33:22;;;;;;;4.08;3.67;;;;;;;17.19;48.93;100694.38;1783687;79;21091;-64
2021/03/29 04:35:51;;;;;;;4.22;3.83;;;;;;;17.20;48.94;100701.92;1800254;78;21615;-66
2021/03/29 04:38:19;;;;;;;4.17;3.77;;;;;;;17.20;48.94;100696.55;1809159;78;22071;-64
2021/03/29 04:40:47;;;;;;;4.47;4.08;;;;;;;17.18;48.94;100695.91;1799062;78;21156;-63
2021/03/29 04:43:14;;;;;;;4.72;4.12;;;;;;;17.17;48.92;100695.09;1783718;79;21109;-63
2021/03/29 04:45:42;;;;;;;4.03;3.55;;;;;;;17.18;48.96;100701.28;1784495;79;22273;-63
2021/03/29 04:48:10;;;;;;;5.25;4.22;;;;;;;17.18;48.91;100699.94;1802670;78;21654;-64
2021/03/29 04:50:37;;;;;;;5.00;4.50;;;;;;;17.18;48.92;100698.08;1763755;79;21658;-63
2021/03/29 04:53:04;;;;;;;4.37;3.95;;;;;;;17.17;48.98;100703.62;1773452;80;21143;-64
2021/03/29 04:55:32;;;;;;;4.75;4.28;;;;;;;17.17;48.97;100708.52;1807625;78;21167;-64
2021/03/29 04:57:59;;;;;;;4.65;4.03;;;;;;;17.17;48.97;100707.66;1784319;80;21179;-64
2021/03/29 05:00:27;;;;;;;4.62;4.10;;;;;;;17.16;48.93;100710.86;1779935;79;21167;-65
2021/03/29 05:02:54;;;;;;;4.62;4.05;;;;;;;17.16;48.92;100708.17;1787159;79;21734;-66
2021/03/29 05:05:22;;;;;;;5.10;4.30;;;;;;;17.16;49.79;100708.69;1764697;80;21215;-66
2021/03/29 05:07:50;;;;;;;4.87;4.35;;;;;;;17.17;50.39;100715.22;1810516;78;21111;-66
2021/03/29 05:10:17;;;;;;;5.55;4.42;;;;;;;17.17;50.54;100720.59;1779149;79;21230;-67
2021/03/29 05:12:45;;;;;;;5.55;4.55;;;;;;;17.18;50.50;100720.90;1789011;78;21140;-67
2021/03/29 05:15:14;;;;;;;4.65;4.17;;;;;;;17.19;50.43;100721.72;1810507;79;21115;-67
2021/03/29 05:17:41;;;;;;;5.05;4.55;;;;;;;17.19;50.40;100713.18;1767608;80;21167;-67
2021/03/29 05:20:10;;;;;;;5.17;4.67;;;;;;;17.19;50.36;100723.92;1802865;78;21131;-64
2021/03/29 05:22:37;;;;;;;5.10;4.60;;;;;;;17.20;50.29;100726.91;1794850;78;21176;-67
2021/03/29 05:25:06;;;;;;;4.47;4.08;;;;;;;17.20;50.23;100730.94;1807340;78;21579;-68
2021/03/29 05:27:33;;;;;;;5.30;4.80;;;;;;;17.20;50.09;100732.28;1801420;78;21583;-68
2021/03/29 05:30:01;;;;;;;5.25;4.55;;;;;;;17.21;50.06;100734.45;1785709;79;21543;-67
2021/03/29 05:33:47;;;;;;;5.37;4.87;;;;;;;17.25;49.89;100739.80;1810514;77;28278;-67
2021/03/29 05:36:15;;;;;;;5.55;4.97;;;;;;;17.18;49.94;100745.06;1774654;78;21123;-68
2021/03/29 05:38:43;;;;;;;5.47;4.85;;;;;;;17.19;49.91;100744.55;1765410;79;21449;-65
2021/03/29 05:41:12;;;;;;;5.75;5.25;;;;;;;17.20;49.82;100750.25;1783580;78;21183;-67
2021/03/29 05:43:43;;;;;;;5.22;4.72;;;;;;;17.19;49.80;100746.74;1760340;78;21187;-66
2021/03/29 05:46:11;;;;;;;5.10;4.60;;;;;;;17.20;49.76;100752.94;1757729;78;21158;-67
2021/03/29 05:48:38;;;;;;;5.20;4.70;;;;;;;17.19;49.73;100759.31;1774416;78;21004;-66
2021/03/29 05:51:08;;;;;;;4.85;4.37;;;;;;;17.19;49.67;100756.14;1775582;78;21366;-68
2021/03/29 05:53:36;;;;;;;5.12;4.62;;;;;;;17.19;49.69;100758.83;1768843;78;21144;-67
2021/03/29 05:56:05;;;;;;;5.50;5.00;;;;;;;17.19;49.75;100764.69;1768220;78;21041;-68
2021/03/29 05:58:37;;;;;;;5.22;4.72;;;;;;;17.19;49.77;100768.71;1776573;78;21214;-70
2021/03/29 06:01:03;;;;;;;5.10;4.60;;;;;;;17.20;49.66;100771.73;1776368;78;21163;-68
2021/03/29 06:03:36;;;;;;;6.28;4.85;;;;;;;17.18;49.61;100773.26;1789799;78;21429;-67
2021/03/29 06:06:18;;;;;;;6.00;5.40;;;;;;;17.19;49.58;100777.62;1796472;78;21202;-69
2021/03/29 06:08:49;;;;;;;5.20;4.70;;;;;;;17.18;49.63;100779.14;1764738;78;21167;-68
2021/03/29 06:11:26;;;;;;;5.17;4.67;;;;;;;17.17;49.62;100781.00;1786557;78;21108;-68
2021/03/29 06:14:11;;;;;;;5.60;5.03;;;;;;;17.17;49.59;100784.17;1735311;81;21197;-67
2021/03/29 06:17:07;;;;;;;5.20;4.70;;;;;;;17.17;49.62;100788.20;1707556;81;21349;-68
2021/03/29 06:19:59;;;;;;;11.45;7.42;;;;;;;17.15;49.59;100785.70;1730793;81;21135;-67
2021/03/29 06:22:34;;;;;;;9.60;6.45;;;;;;;17.19;57.09;100755.28;1734488;81;21770;-65
2021/03/29 06:25:14;;;;;;;11.48;7.20;;;;;;;17.58;59.49;100758.16;1712157;81;21173;-65
2021/03/29 06:27:56;;;;;;;9.20;7.00;;;;;;;18.03;59.42;100753.48;1715199;81;21160;-67
2021/03/29 06:30:36;;;;;;;12.98;7.62;;;;;;;18.39;59.09;100753.91;1714746;81;22287;-68
2021/03/29 06:33:15;;;;;;;11.28;6.62;;;;;;;18.70;58.56;100763.42;1698861;81;21223;-66
2021/03/29 06:35:52;;;;;;;9.45;7.12;;;;;;;18.97;57.93;100765.30;1755450;79;21191;-66
2021/03/29 06:38:33;;;;;;;7.85;6.97;;;;;;;19.21;57.31;100769.35;1692439;82;21224;-68
2021/03/29 06:41:00;;;;;;;12.28;8.35;;;;;;;19.42;56.68;100771.63;1754040;79;21171;-67
2021/03/29 06:43:30;;;;;;;15.38;8.20;;;;;;;19.61;56.48;100778.95;1760530;79;21377;-67
2021/03/29 06:46:09;;;;;;;13.95;8.98;;;;;;;19.80;56.97;100780.61;1748616;79;21243;-67
2021/03/29 06:48:38;;;;;;;14.95;8.73;;;;;;;19.94;57.14;100781.47;1751492;80;21195;-66
2021/03/29 06:51:32;;;;;;;14.87;8.73;;;;;;;20.08;57.10;100783.13;1697992;82;21642;-68
2021/03/29 06:54:07;;;;;;;12.55;7.62;;;;;;;20.22;56.96;100786.67;1764802;79;21151;-67
2021/03/29 06:56:45;;;;;;;12.28;8.33;;;;;;;20.35;56.56;100788.56;1767645;79;21376;-66
2021/03/29 07:01:55;;;;;;;13.28;8.15;;;;;;;20.61;55.88;100789.13;1761511;79;22939;-69
2021/03/29 07:04:25;;;;;;;11.78;8.18;;;;;;;20.66;55.62;100789.30;1739291;80;21195;-68
2021/03/29 07:06:54;;;;;;;13.22;7.65;;;;;;;20.74;55.35;100790.43;1748791;81;21342;-67
2021/03/29 07:09:21;;;;;;;12.07;7.83;;;;;;;20.85;55.01;100793.55;1757240;79;21660;-68
2021/03/29 07:11:49;;;;;;;12.88;8.28;;;;;;;20.92;54.73;100797.91;1757374;79;21617;-68
2021/03/29 07:14:21;;;;;;;15.68;7.75;;;;;;;20.99;54.44;100800.05;1759007;81;21209;-70
2021/03/29 07:16:50;;;;;;;11.87;8.20;;;;;;;21.05;54.18;100797.03;1758456;79;21165;-68
2021/03/29 07:19:17;;;;;;;12.60;8.13;;;;;;;21.12;53.95;100804.60;1743558;81;21381;-68
2021/03/29 07:21:45;;;;;;;12.30;7.92;;;;;;;21.18;53.70;100794.82;1742777;79;21203;-66
2021/03/29 07:24:14;;;;;;;10.72;7.40;;;;;;;21.24;53.51;100800.72;1737785;81;21186;-67
2021/03/29 07:26:48;;;;;;;12.55;8.20;;;;;;;21.30;53.32;100807.15;1757313;81;21150;-66
2021/03/29 07:29:22;;;;;;;9.45;8.00;;;;;;;21.34;53.12;100802.48;1748748;79;21147;-66
2021/03/29 07:31:53;;;;;;;12.70;8.30;;;;;;;21.41;53.02;100809.20;1759769;79;21192;-68
2021/03/29 07:34:47;;;;;;;11.00;8.13;;;;;;;21.44;52.81;100809.31;1766362;81;21138;-67
2021/03/29 07:37:44;;;;;;;12.63;7.55;;;;;;;21.49;52.58;100812.22;1727590;81;24157;-69
2021/03/29 07:40:22;;;;;;;10.68;7.58;;;;;;;21.51;52.38;100813.65;1745915;81;21229;-70
2021/03/29 07:42:51;;;;;;;10.10;6.97;;;;;;;21.55;52.23;100828.92;1748684;81;21178;-68
2021/03/29 07:45:28;;;;;;;11.40;7.85;;;;;;;21.57;52.11;100828.19;1745075;81;21255;-68
2021/03/29 07:47:57;;;;;;;12.00;7.70;;;;;;;21.61;51.96;100832.12;1743029;81;21658;-66
2021/03/29 07:50:33;;;;;;;10.65;7.70;;;;;;;21.63;51.82;100831.38;1747064;81;21214;-66
2021/03/29 07:53:16;;;;;;;11.65;8.18;;;;;;;21.66;51.68;100832.31;1751430;81;21599;-66
2021/03/29 07:55:54;;;;;;;11.33;7.97;;;;;;;21.70;51.53;100842.19;1753181;81;21229;-69
2021/03/29 07:58:28;;;;;;;10.58;7.62;;;;;;;21.76;51.39;100868.36;1814490;79;22773;-66
2021/03/29 08:01:07;;;;;;;9.10;7.42;;;;;;;21.75;51.38;100885.13;1787239;78;21103;-68
2021/03/29 08:03:36;;;;;;;10.80;7.30;;;;;;;21.73;50.96;100880.45;1809124;78;21403;-69
2021/03/29 08:06:05;;;;;;;13.15;7.65;;;;;;;21.68;50.54;100882.95;1774286;80;21152;-66
2021/03/29 08:08:38;;;;;;;9.58;7.42;;;;;;;21.63;50.28;100891.39;1790764;79;21123;-66
2021/03/29 08:11:10;;;;;;;;;;;;;;;21.56;50.06;100896.84;1770378;80;21167;-68
2021/03/29 08:16:28;;;;;;;12.43;10.07;;;;;;;21.32;49.95;100886.14;1785693;77;38515;-68
2021/03/29 08:19:18;;;;;;;16.55;8.05;;;;;;;21.45;49.43;100894.25;1803640;77;21472;-68
2021/03/29 08:22:02;;;;;;;9.98;7.83;;;;;;;21.61;48.80;100903.77;1810229;78;21316;-66
2021/03/29 08:24:40;;;;;;;9.18;7.78;;;;;;;21.43;48.74;100907.13;1798333;78;21188;-67
2021/03/29 08:27:18;;;;;;;11.50;8.53;;;;;;;21.28;48.81;100911.93;1785832;78;21068;-68
2021/03/29 08:29:47;;;;;;;9.95;8.05;;;;;;;21.16;48.77;100907.69;1773679;79;21623;-66
2021/03/29 08:32:33;;;;;;;9.75;7.95;;;;;;;21.05;48.76;100916.42;1782966;78;21142;-68
2021/03/29 08:35:08;;;;;;;10.68;7.60;;;;;;;20.95;48.80;100911.44;1769777;78;21115;-70
2021/03/29 08:37:47;;;;;;;9.35;7.90;;;;;;;20.85;48.83;100917.25;1798717;78;21168;-66
2021/03/29 08:40:30;;;;;;;10.18;8.28;;;;;;;20.77;48.87;100916.12;1778775;79;21131;-68
2021/03/29 08:43:05;;;;;;;9.60;7.92;;;;;;;20.69;48.84;100916.33;1796634;78;21173;-67
2021/03/29 08:45:33;;;;;;;10.15;8.05;;;;;;;20.59;48.90;100912.16;1791220;77;21181;-68
2021/03/29 08:48:04;;;;;;;8.83;7.75;;;;;;;20.50;48.91;100905.25;1803469;78;21420;-68
2021/03/29 08:50:37;;;;;;;9.98;7.97;;;;;;;20.46;48.92;100913.97;1800725;78;21167;-68
2021/03/29 08:53:11;;;;;;;10.80;7.62;;;;;;;20.40;48.97;100914.27;1797746;77;21113;-70
2021/03/29 08:55:43;;;;;;;10.98;8.35;;;;;;;20.34;49.01;100907.82;1794405;78;21610;-68
2021/03/29 08:58:11;;;;;;;11.57;8.37;;;;;;;20.29;49.06;100914.86;1787945;80;21130;-68
2021/03/29 09:00:43;;;;;;;9.53;7.70;;;;;;;20.25;49.06;100924.41;1798130;77;21428;-68
2021/03/29 09:03:23;;;;;;;9.53;7.72;;;;;;;20.20;49.12;100924.99;1801268;78;21193;-66
2021/03/29 09:05:51;;;;;;;9.28;8.25;;;;;;;20.16;49.08;100921.86;1782011;78;21583;-69
2021/03/29 09:08:19;;;;;;;9.88;8.25;;;;;;;20.13;49.11;100921.46;1774696;78;21178;-68
2021/03/29 09:10:48;;;;;;;9.73;8.73;;;;;;;20.09;49.10;100922.88;1785543;79;21572;-66
2021/03/29 09:13:16;;;;;;;8.65;7.70;;;;;;;20.08;49.07;100926.09;1775861;78;21368;-71
2021/03/29 09:15:48;;;;;;;10.68;8.68;;;;;;;20.06;49.13;100927.34;1754143;79;21209;-68
2021/03/29 09:18:17;;;;;;;9.90;8.10;;;;;;;20.02;49.12;100927.73;1734920;81;21148;-68
2021/03/29 09:20:48;;;;;;;8.78;7.87;;;;;;;20.00;49.07;100933.84;1734543;81;21233;-67
2021/03/29 09:23:19;;;;;;;8.88;7.62;;;;;;;19.99;49.05;100938.09;1745657;82;21096;-67
2021/03/29 09:25:49;;;;;;;9.33;8.38;;;;;;;19.98;48.97;100940.48;1742937;82;21328;-65
2021/03/29 09:31:00;;;;;;;10.20;8.48;;;;;;;19.92;49.03;100944.81;1714171;81;21604;-68
2021/03/29 09:33:28;;;;;;;10.40;8.48;;;;;;;19.90;49.04;100937.44;1740596;81;21552;-68
2021/03/29 09:35:55;;;;;;;9.93;8.33;;;;;;;19.89;49.04;100945.20;1744247;81;22588;-66
2021/03/29 09:38:37;;;;;;;9.90;8.40;;;;;;;19.87;49.06;100944.56;1738493;81;21261;-66
2021/03/29 09:41:25;;;;;;;9.13;7.83;;;;;;;19.87;49.02;100948.61;1732453;82;21635;-67
2021/03/29 09:43:54;;;;;;;9.38;8.43;;;;;;;19.86;49.01;100950.16;1736315;81;21183;-69
2021/03/29 09:46:30;;;;;;;9.90;7.53;;;;;;;19.82;48.97;100954.62;1741564;81;21111;-68
2021/03/29 09:49:15;;;;;;;8.75;7.85;;;;;;;19.81;48.98;100954.29;1739944;81;21883;-68
2021/03/29 09:51:45;;;;;;;10.00;8.90;;;;;;;19.81;48.97;100960.20;1738933;81;21372;-66
2021/03/29 09:54:28;;;;;;;9.80;8.80;;;;;;;19.79;48.97;100953.66;1738496;81;21175;-68
2021/03/29 09:56:57;;;;;;;9.20;8.15;;;;;;;19.79;49.11;100956.88;1711809;82;21573;-71
2021/03/29 09:59:34;;;;;;;9.10;8.20;;;;;;;19.79;49.20;100959.05;1751962;80;21158;-70
2021/03/29 10:02:23;;;;;;;10.58;8.70;;;;;;;19.79;49.25;100964.44;1738218;81;21147;-69
2021/03/29 10:05:05;;;;;;;9.45;8.20;;;;;;;19.79;49.17;100964.44;1742962;81;22565;-70
2021/03/29 10:07:33;;;;;;;11.53;8.05;;;;;;;19.78;49.17;100972.23;1770744;80;21155;-71
2021/03/29 10:10:05;;;;;;;9.50;8.10;;;;;;;19.77;49.19;100966.50;1768533;80;21151;-67
2021/03/29 10:12:35;;;;;;;10.30;8.50;;;;;;;19.77;49.22;100970.55;1748159;80;21151;-65
2021/03/29 10:15:11;;;;;;;9.60;8.60;;;;;;;19.78;49.30;100977.62;1751990;79;21186;-65
2021/03/29 10:17:40;;;;;;;10.63;8.70;;;;;;;19.78;49.28;100977.62;1762472;81;21403;-66
2021/03/29 10:20:16;;;;;;;9.45;8.45;;;;;;;19.79;49.37;100979.27;1759519;80;22322;-65
2021/03/29 10:22:44;;;;;;;9.00;8.10;;;;;;;19.79;49.46;100975.22;1762440;81;21171;-64
2021/03/29 10:25:21;;;;;;;8.90;8.00;;;;;;;19.83;49.60;100977.02;1762484;81;21224;-65
2021/03/29 10:27:54;;;;;;;8.70;7.80;;;;;;;19.88;49.29;100983.18;1761699;81;21167;-65
2021/03/29 10:30:28;;;;;;;9.68;8.73;;;;;;;19.95;49.42;100979.98;1762848;81;21389;-66
2021/03/29 10:32:59;;;;;;;10.48;8.90;;;;;;;20.03;49.79;100987.40;1761886;81;21144;-65
2021/03/29 10:35:28;;;;;;;8.70;7.80;;;;;;;20.11;49.70;100976.10;1762935;81;21591;-66
2021/03/29 10:40:33;;;;;;;9.28;8.33;;;;;;;20.33;49.39;100977.66;1776620;79;22884;-64
2021/03/29 10:43:03;;;;;;;11.53;8.85;;;;;;;20.38;49.47;100983.81;1750035;82;21198;-66
2021/03/29 10:45:30;;;;;;;9.35;8.38;;;;;;;20.46;49.50;100981.45;1756648;81;21387;-65
2021/03/29 10:47:57;;;;;;;8.83;7.92;;;;;;;20.55;49.46;100974.31;1749751;81;21198;-65
2021/03/29 10:50:26;;;;;;;8.55;7.65;;;;;;;20.66;49.77;100978.82;1747392;81;21190;-65
2021/03/29 10:52:54;;;;;;;9.55;8.55;;;;;;;20.81;49.97;100976.77;1747206;81;21646;-67
2021/03/29 10:55:22;;;;;;;10.25;9.18;;;;;;;20.99;49.66;100978.86;1747189;81;21159;-65
2021/03/29 10:57:50;;;;;;;8.18;7.37;;;;;;;21.19;49.37;100982.41;1766205;81;21222;-65
2021/03/29 11:00:20;;;;;;;9.23;8.18;;;;;;;21.46;48.98;100985.14;1766103;81;21180;-65
2021/03/29 11:02:49;;;;;;;8.75;7.65;;;;;;;21.73;48.66;100987.27;1746434;81;21215;-65
2021/03/29 11:05:17;;;;;;;8.13;7.28;;;;;;;22.00;48.29;100984.50;1765651;81;21193;-64
2021/03/29 11:07:44;;;;;;;9.65;8.25;;;;;;;22.28;47.93;100983.37;1765603;81;21117;-64
2021/03/29 11:10:13;;;;;;;8.80;7.83;;;;;;;22.55;47.60;100976.76;1756841;81;21386;-64
2021/03/29 11:12:40;;;;;;;8.68;7.47;;;;;;;22.84;47.37;100975.03;1761244;81;21159;-63
2021/03/29 11:15:10;;;;;;;7.92;7.08;;;;;;;23.06;47.08;100973.62;1753200;81;21122;-65
2021/03/29 11:17:38;;;;;;;8.63;7.72;;;;;;;23.23;46.73;100975.26;1758595;81;21625;-65
2021/03/29 11:20:07;;;;;;;9.00;8.08;;;;;;;23.32;46.57;100969.86;1754948;81;21175;-65
2021/03/29 11:22:35;;;;;;;9.43;7.70;;;;;;;23.40;46.45;100972.81;1736782;81;21205;-65
2021/03/29 11:25:05;;;;;;;8.03;7.22;;;;;;;23.44;46.24;100974.56;1753207;81;21135;-67
2021/03/29 11:27:32;;;;;;;9.00;8.10;;;;;;;23.46;46.09;100980.05;1756099;81;21531;-66
2021/03/29 11:30:03;;;;;;;8.00;7.17;;;;;;;23.44;46.06;100977.27;1766303;81;21141;-65
2021/03/29 11:32:31;;;;;;;7.85;7.10;;;;;;;23.43;46.12;100981.02;1766700;81;21626;-65
2021/03/29 11:34:58;;;;;;;7.65;6.92;;;;;;;23.46;46.21;100975.16;1765085;81;22284;-65
2021/03/29 11:37:27;;;;;;;8.35;7.58;;;;;;;23.52;46.19;100975.08;1766377;81;21216;-66
2021/03/29 11:39:56;;;;;;;9.05;7.80;;;;;;;23.60;46.04;100970.43;1737445;81;21206;-65
2021/03/29 11:42:23;;;;;;;8.05;7.15;;;;;;;23.69;45.93;100965.02;1720617;82;21204;-64
2021/03/29 11:44:50;;;;;;;7.95;7.15;;;;;;;23.82;45.75;100970.88;1736248;82;21126;-65
2021/03/29 11:47:18;;;;;;;8.20;7.40;;;;;;;23.94;45.53;100964.98;1735243;82;21411;-64
2021/03/29 11:49:45;;;;;;;8.00;7.20;;;;;;;24.09;45.35;100970.02;1715578;82;21186;-65
2021/03/29 11:52:13;;;;;;;7.20;6.50;;;;;;;24.26;45.15;100974.28;1721084;82;21186;-64
2021/03/29 11:54:40;;;;;;;8.60;7.78;;;;;;;24.40;44.98;100977.67;1724507;82;21180;-66
2021/03/29 11:57:09;;;;;;;8.03;7.22;;;;;;;24.53;44.82;100972.05;1735871;82;21236;-65